Itaipulandia, Brazil
Current Conditions -  °F | °C
As of 4:10 AM on Monday 22 Dec 2014 (Local Time) from SBFI Reporting Station
Broken Clouds Broken Clouds  
Wind Chill: 70°   Ceiling: 500
Heat Index: 70°   Visibility: 6mi
Dew Point: 68°   Wind: 2mph
Humidity: 94%   Direction: 190°S
Pressure: 29.77"   Gusts: NA
Location:  25.14°S, 54.3°W
Report Text: SBFI 220610Z 19002KT 9999 BKN005 BKN100 21/20 Q1008
Loading
Personal Weather Stations






























Interactive Weather Map New forecast layout! Learn more

10-Day Weather Forecast

Advertisements
Track Severe Weather on mobile